Flight Track Log - Related Links

Times and Time Zones

All times are in EDT time to prevent confusion due to time zone crossing. See the VH-AWE flight status page for this flight to view local times or setup timezone preferences in your user account.

Time Position Orientation Groundspeed Altitude Reporting Facility
EDT Latitude Longitude Course Direction KTS MPH feet Rate Location/Type
Fri 12:19:08 AM -25.5768 152.6904 201° Southwest  Level Aus ATC (Calculated)
Fri 12:19:56 AM -25.5768 152.6904 201° Southwest 1,521 Level Aus ATC (Calculated)
Fri 12:21:00 AM -25.6519 152.6614 199° South  Level Estimated
Fri 12:21:57 AM -25.6383 152.6665 204° Southwest  Level Aus ATC (Calculated)
Fri 12:22:00 AM -25.6599 152.6583 199° South  Level Estimated
Fri 12:22:41 AM -25.6579 152.6566 199° South 112 129 5,400  Level Aus ATC (RADAR)
Fri 12:23:20 AM -25.6750 152.6505 198° South 97 112 5,900 742 Climbing Aus ATC (RADAR)
Fri 12:24:10 AM -25.6973 152.6417 200° South 102 117 6,500 780 Climbing Aus ATC (RADAR)
Fri 12:25:00 AM -25.7193 152.6335 199° South 100 115 7,200 720 Climbing Aus ATC (RADAR)
Fri 12:26:15 AM -25.7535 152.6199 200° South 103 119 8,000 432 Climbing Aus ATC (RADAR)
Fri 12:27:05 AM -25.7797 152.6098 199° South 121 139 8,100 63 Climbing Aus ATC (RADAR)
Fri 12:27:50 AM -25.8086 152.5991 198° South 143 165 8,100  Level Aus ATC (RADAR)
Fri 12:28:25 AM -25.8328 152.5900 199° South 154 177 8,100  Level Aus ATC (RADAR)
Fri 12:29:10 AM -25.8639 152.5780 199° South 155 178 8,100  Level Aus ATC (RADAR)
Fri 12:29:40 AM -25.8840 152.5706 198° South 153 176 8,100  Level Aus ATC (RADAR)
Fri 12:30:15 AM -25.9087 152.5598 201° Southwest 159 183 8,100  Level Aus ATC (RADAR)
Fri 12:31:15 AM -25.9501 152.5440 199° South 158 182 8,100  Level Aus ATC (RADAR)
Fri 12:32:19 AM -25.9935 152.5277 199° South 154 177 8,100  Level Aus ATC (RADAR)
Fri 12:32:54 AM -26.0178 152.5182 199° South 161 185 8,100  Level Aus ATC (RADAR)
Fri 12:33:29 AM -26.0438 152.5061 203° Southwest 171 197 8,100  Level Aus ATC (RADAR)
Fri 12:34:19 AM -26.0775 152.4949 197° South 159 183 8,100  Level Aus ATC (RADAR)
Fri 12:35:19 AM -26.1198 152.4768 201° Southwest 167 192 8,100  Level Aus ATC (RADAR)
Fri 12:36:44 AM -26.1790 152.4543 199° South 160 184 8,100  Level Aus ATC (RADAR)
Fri 12:37:49 AM -26.2244 152.4361 200° South 161 185 8,100  Level Aus ATC (RADAR)
Fri 12:38:24 AM -26.2485 152.4267 199° South 159 183 8,100  Level Aus ATC (RADAR)
Fri 12:39:04 AM -26.2764 152.4158 199° South 159 183 8,100  Level Aus ATC (RADAR)
Fri 12:39:49 AM -26.3077 152.4037 199° South 158 182 8,100  Level Aus ATC (RADAR)
Fri 12:40:19 AM -26.3288 152.3951 200° South 162 186 8,100  Level Aus ATC (RADAR)
Fri 12:41:44 AM -26.3880 152.3723 199° South 159 183 8,100  Level Aus ATC (RADAR)
Fri 12:42:14 AM -26.4091 152.3639 200° South 162 186 8,100  Level Aus ATC (RADAR)
Fri 12:42:48 AM -26.4340 152.3546 198° South 162 186 8,100  Level Aus ATC (RADAR)
Fri 12:43:28 AM -26.4622 152.3432 200° South 162 186 8,100  Level Aus ATC (RADAR)
Fri 12:44:03 AM -26.4871 152.3332 200° South 162 186 8,100  Level Aus ATC (RADAR)
Fri 12:44:48 AM -26.5183 152.3206 200° South 159 183 8,100  Level Aus ATC (RADAR)
Fri 12:46:33 AM -26.5921 152.2915 199° South 159 183 8,100  Level Aus ATC (RADAR)
Fri 12:47:13 AM -26.6200 152.2801 200° South 160 184 8,100  Level Aus ATC (RADAR)
Fri 12:48:08 AM -26.6585 152.2650 199° South 160 184 8,100  Level Aus ATC (RADAR)
Fri 12:48:43 AM -26.6830 152.2554 199° South 159 183 8,100  Level Aus ATC (RADAR)
Fri 12:49:18 AM -26.7073 152.2457 200° South 159 183 8,100  Level Aus ATC (RADAR)
Fri 12:50:08 AM -26.7424 152.2320 199° South 159 183 8,100  Level Aus ATC (RADAR)
Fri 12:51:42 AM -26.8101 152.2052 200° South 164 189 8,100  Level Aus ATC (RADAR)
Fri 12:52:47 AM -26.8561 152.1866 200° South 162 186 8,100  Level Aus ATC (RADAR)
Fri 12:53:22 AM -26.8813 152.1766 200° South 164 189 8,100  Level Aus ATC (RADAR)
Fri 12:54:02 AM -26.9095 152.1653 200° South 162 186 8,100  Level Aus ATC (RADAR)
Fri 12:54:47 AM -26.9412 152.1526 200° South 159 183 8,100  Level Aus ATC (RADAR)
Fri 12:56:12 AM -27.0011 152.1288 199° South 160 184 8,100  Level Aus ATC (RADAR)
Fri 12:56:47 AM -27.0257 152.1189 200° South 158 182 8,100  Level Aus ATC (RADAR)
Fri 12:57:37 AM -27.0612 152.1050 199° South 162 186 8,100 -300 Level Aus ATC (RADAR)
Fri 12:58:27 AM -27.0973 152.0902 200° South 168 193 7,600 -565 Descending Aus ATC (RADAR)
Fri 12:59:02 AM -27.1261 152.0786 200° South 184 212 7,300 -565 Descending Aus ATC (RADAR)
Fri 12:59:52 AM -27.1663 152.0626 200° South 185 213 6,800 -643 Descending Aus ATC (RADAR)
Fri 01:01:22 AM -27.2386 152.0332 200° South 186 214 5,800 -625 Descending Aus ATC (RADAR)
Fri 01:02:16 AM -27.2830 152.0156 199° South 185 213 5,300 -607 Descending Aus ATC (RADAR)
Fri 01:02:51 AM -27.3117 152.0044 199° South 187 215 4,900 -640 Descending Aus ATC (RADAR)
Fri 01:03:31 AM -27.3437 151.9911 200° South 184 212 4,500 -600 Descending Aus ATC (RADAR)
Fri 01:04:11 AM -27.3760 151.9787 199° South 184 212 4,100 -565 Descending Aus ATC (RADAR)
Fri 01:04:56 AM -27.4116 151.9645 199° South 181 208 3,700 -409 Descending Aus ATC (RADAR)
Fri 01:06:23 AM -27.4684 151.9312 207° Southwest 163 188 3,200 -214 Descending Aus ATC (RADAR)
Fri 01:07:16 AM -27.4983 151.9051 218° Southwest 145 167 3,200 -323 Level Aus ATC (RADAR)
Fri 01:07:56 AM -27.5169 151.8917 213° Southwest 123 142 2,700 -560 Descending Aus ATC (RADAR)
Fri 01:08:31 AM -27.5343 151.8936 175° South 118 136 2,500 -429 Descending Aus ATC (RADAR)
Fri 01:09:06 AM -27.5389 151.9103 107° East 89 102 2,200 -514 Descending Aus ATC (RADAR)

Login

Don't have an account? Register now (free) for customized features, flight alerts, and more!